Time,TemperatureF,DewpointF,PressureIn,WindDirection,WindDirectionDegrees,WindSpeedMPH,WindSpeedGustMPH,Humidity,HourlyPrecipIn,Conditions,Clouds,dailyrainin,SolarRadiationWatts/m^2,SoftwareType,DateUTC
2013-03-30 00:23:00,24.0,16.0,-100.00,East,92,0.0,1.0,72,0.00,,,0.00,1.000000,,2013-03-30 04:23:00,
2013-03-30 00:32:00,24.0,16.0,-100.00,East,92,0.0,1.0,72,0.00,,,0.00,1.000000,,2013-03-30 04:32:00,
2013-03-30 00:43:00,24.0,16.0,-100.00,East,92,0.0,1.0,72,0.00,,,0.00,1.000000,,2013-03-30 04:43:00,
2013-03-30 00:52:00,24.0,16.0,-100.00,East,92,0.0,1.0,72,0.00,,,0.00,1.000000,,2013-03-30 04:52:00,
2013-03-30 01:22:00,23.0,16.0,-100.00,ESE,113,0.0,0.0,75,0.00,,,0.00,1.000000,,2013-03-30 05:22:00,
2013-03-30 01:32:00,23.0,16.0,-100.00,ESE,113,0.0,0.0,75,0.00,,,0.00,1.000000,,2013-03-30 05:32:00,
2013-03-30 01:42:00,23.0,16.0,-100.00,ESE,113,0.0,0.0,75,0.00,,,0.00,1.000000,,2013-03-30 05:42:00,
2013-03-30 01:52:00,23.0,16.0,-100.00,ESE,113,0.0,0.0,75,0.00,,,0.00,1.000000,,2013-03-30 05:52:00,
2013-03-30 02:23:00,26.0,19.0,-100.00,ESE,105,0.0,0.0,76,0.00,,,0.00,1.000000,,2013-03-30 06:23:00,
2013-03-30 02:32:00,26.0,19.0,-100.00,ESE,105,0.0,0.0,76,0.00,,,0.00,1.000000,,2013-03-30 06:32:00,
2013-03-30 02:42:00,26.0,19.0,-100.00,ESE,105,0.0,0.0,76,0.00,,,0.00,1.000000,,2013-03-30 06:42:00,
2013-03-30 02:52:00,26.0,19.0,-100.00,ESE,105,0.0,0.0,76,0.00,,,0.00,1.000000,,2013-03-30 06:52:00,
2013-03-30 03:22:00,26.0,20.0,-100.00,SSE,161,1.0,3.0,77,0.00,,,0.00,1.000000,,2013-03-30 07:22:00,
2013-03-30 03:32:00,26.0,20.0,-100.00,SSE,161,1.0,3.0,77,0.00,,,0.00,1.000000,,2013-03-30 07:32:00,
2013-03-30 03:42:00,26.0,20.0,-100.00,SSE,161,1.0,3.0,77,0.00,,,0.00,1.000000,,2013-03-30 07:42:00,
2013-03-30 03:52:00,26.0,20.0,-100.00,SSE,161,1.0,3.0,77,0.00,,,0.00,1.000000,,2013-03-30 07:52:00,
2013-03-30 04:22:00,29.0,19.0,-100.00,South,173,3.0,5.0,66,0.00,,,0.00,1.000000,,2013-03-30 08:22:00,
2013-03-30 04:32:00,29.0,19.0,-100.00,South,173,3.0,5.0,66,0.00,,,0.00,1.000000,,2013-03-30 08:32:00,
2013-03-30 04:42:00,29.0,19.0,-100.00,South,173,3.0,5.0,66,0.00,,,0.00,1.000000,,2013-03-30 08:42:00,
2013-03-30 04:52:00,29.0,19.0,-100.00,South,173,3.0,5.0,66,0.00,,,0.00,1.000000,,2013-03-30 08:52:00,
2013-03-30 05:22:00,32.0,21.0,-100.00,South,183,3.0,6.0,64,0.00,,,0.00,1.000000,,2013-03-30 09:22:00,
2013-03-30 05:43:00,32.0,21.0,-100.00,South,183,3.0,6.0,64,0.00,,,0.00,1.000000,,2013-03-30 09:43:00,
2013-03-30 05:53:00,32.0,21.0,-100.00,South,183,3.0,6.0,64,0.00,,,0.00,1.000000,,2013-03-30 09:53:00,
2013-03-30 06:23:00,31.0,18.0,-100.00,SSE,152,2.0,6.0,59,0.00,,,0.00,1.000000,,2013-03-30 10:23:00,
2013-03-30 06:33:00,31.0,18.0,-100.00,SSE,152,2.0,6.0,59,0.00,,,0.00,1.000000,,2013-03-30 10:33:00,
2013-03-30 06:42:00,31.0,18.0,-100.00,SSE,152,2.0,6.0,59,0.00,,,0.00,1.000000,,2013-03-30 10:42:00,
2013-03-30 06:52:00,31.0,18.0,-100.00,SSE,152,2.0,6.0,59,0.00,,,0.00,1.000000,,2013-03-30 10:52:00,
2013-03-30 07:22:00,29.0,20.0,-100.00,South,180,1.0,5.0,70,0.00,,,0.00,1.000000,,2013-03-30 11:22:00,
2013-03-30 07:33:00,29.0,20.0,-100.00,South,180,1.0,5.0,70,0.00,,,0.00,1.000000,,2013-03-30 11:33:00,
2013-03-30 07:42:00,29.0,20.0,-100.00,South,180,1.0,5.0,70,0.00,,,0.00,1.000000,,2013-03-30 11:42:00,
2013-03-30 07:52:00,29.0,20.0,-100.00,South,180,1.0,5.0,70,0.00,,,0.00,1.000000,,2013-03-30 11:52:00,
2013-03-30 08:22:00,37.0,22.0,-100.00,SSW,199,5.0,9.0,54,0.00,,,0.00,2.000000,,2013-03-30 12:22:00,
2013-03-30 08:32:00,37.0,22.0,-100.00,SSW,199,5.0,9.0,54,0.00,,,0.00,2.000000,,2013-03-30 12:32:00,
2013-03-30 08:42:00,37.0,22.0,-100.00,SSW,199,5.0,9.0,54,0.00,,,0.00,2.000000,,2013-03-30 12:42:00,
2013-03-30 08:52:00,37.0,22.0,-100.00,SSW,199,5.0,9.0,54,0.00,,,0.00,2.000000,,2013-03-30 12:52:00,
2013-03-30 09:22:00,35.0,33.0,-100.00,SSW,196,4.0,10.0,92,0.00,,,0.00,9.000000,,2013-03-30 13:22:00,
2013-03-30 09:32:00,35.0,33.0,-100.00,SSW,196,4.0,10.0,92,0.00,,,0.00,9.000000,,2013-03-30 13:32:00,
2013-03-30 09:42:00,35.0,33.0,-100.00,SSW,196,4.0,10.0,92,0.00,,,0.00,9.000000,,2013-03-30 13:42:00,
2013-03-30 09:52:00,35.0,33.0,-100.00,SSW,196,4.0,10.0,92,0.00,,,0.00,9.000000,,2013-03-30 13:52:00,
2013-03-30 10:23:00,36.0,35.0,-100.00,South,176,4.0,8.0,95,0.00,,,0.00,26.000000,,2013-03-30 14:23:00,
2013-03-30 10:32:00,36.0,35.0,-100.00,South,176,4.0,8.0,95,0.00,,,0.00,26.000000,,2013-03-30 14:32:00,
2013-03-30 10:42:00,36.0,35.0,-100.00,South,176,4.0,8.0,95,0.00,,,0.00,26.000000,,2013-03-30 14:42:00,
2013-03-30 10:52:00,36.0,35.0,-100.00,South,176,4.0,8.0,95,0.00,,,0.00,26.000000,,2013-03-30 14:52:00,
2013-03-30 11:22:00,37.0,36.0,-100.00,South,181,5.0,10.0,95,0.00,,,0.00,32.000000,,2013-03-30 15:22:00,
2013-03-30 11:33:00,37.0,36.0,-100.00,South,181,5.0,10.0,95,0.00,,,0.00,32.000000,,2013-03-30 15:33:00,
2013-03-30 11:43:00,37.0,36.0,-100.00,South,181,5.0,10.0,95,0.00,,,0.00,32.000000,,2013-03-30 15:43:00,
2013-03-30 11:52:00,37.0,36.0,-100.00,South,181,5.0,10.0,95,0.00,,,0.00,32.000000,,2013-03-30 15:52:00,
2013-03-30 12:23:00,36.0,34.0,-100.00,South,178,5.0,12.0,94,0.00,,,0.00,41.000000,,2013-03-30 16:23:00,
2013-03-30 12:33:00,36.0,34.0,-100.00,South,178,5.0,12.0,94,0.00,,,0.00,41.000000,,2013-03-30 16:33:00,
2013-03-30 12:43:00,36.0,34.0,-100.00,South,178,5.0,12.0,94,0.00,,,0.00,41.000000,,2013-03-30 16:43:00,
2013-03-30 12:52:00,36.0,34.0,-100.00,South,178,5.0,12.0,94,0.00,,,0.00,41.000000,,2013-03-30 16:52:00,
2013-03-30 13:23:00,36.0,34.0,-100.00,South,191,5.0,15.0,94,0.00,,,0.00,67.000000,,2013-03-30 17:23:00,
2013-03-30 13:32:00,36.0,34.0,-100.00,South,191,5.0,15.0,94,0.00,,,0.00,67.000000,,2013-03-30 17:32:00,
2013-03-30 13:42:00,36.0,34.0,-100.00,South,191,5.0,15.0,94,0.00,,,0.00,67.000000,,2013-03-30 17:42:00,
2013-03-30 13:52:00,36.0,34.0,-100.00,South,191,5.0,15.0,94,0.00,,,0.00,67.000000,,2013-03-30 17:52:00,
2013-03-30 14:22:00,36.0,35.0,-100.00,SSW,203,6.0,11.0,95,0.00,,,0.00,50.000000,,2013-03-30 18:22:00,
2013-03-30 14:32:00,36.0,35.0,-100.00,SSW,203,6.0,11.0,95,0.00,,,0.00,50.000000,,2013-03-30 18:32:00,
2013-03-30 14:42:00,36.0,35.0,-100.00,SSW,203,6.0,11.0,95,0.00,,,0.00,50.000000,,2013-03-30 18:42:00,
2013-03-30 14:53:00,36.0,35.0,-100.00,SSW,203,6.0,11.0,95,0.00,,,0.00,50.000000,,2013-03-30 18:53:00,
2013-03-30 15:22:00,36.0,34.0,-100.00,SSW,205,5.0,12.0,94,0.00,,,0.00,56.000000,,2013-03-30 19:22:00,
2013-03-30 15:32:00,36.0,34.0,-100.00,SSW,205,5.0,12.0,94,0.00,,,0.00,56.000000,,2013-03-30 19:32:00,
2013-03-30 15:42:00,36.0,34.0,-100.00,SSW,205,5.0,12.0,94,0.00,,,0.00,56.000000,,2013-03-30 19:42:00,
2013-03-30 15:52:00,36.0,34.0,-100.00,SSW,205,5.0,12.0,94,0.00,,,0.00,56.000000,,2013-03-30 19:52:00,
2013-03-30 16:22:00,37.0,36.0,-100.00,SW,233,4.0,11.0,95,0.00,,,0.00,73.000000,,2013-03-30 20:22:00,
2013-03-30 16:32:00,37.0,36.0,-100.00,SW,233,4.0,11.0,95,0.00,,,0.00,73.000000,,2013-03-30 20:32:00,
2013-03-30 16:42:00,37.0,36.0,-100.00,SW,233,4.0,11.0,95,0.00,,,0.00,73.000000,,2013-03-30 20:42:00,
2013-03-30 16:52:00,37.0,36.0,-100.00,SW,233,4.0,11.0,95,0.00,,,0.00,73.000000,,2013-03-30 20:52:00,
2013-03-30 17:22:00,38.0,37.0,-100.00,SW,227,4.0,8.0,95,0.00,,,0.00,72.000000,,2013-03-30 21:22:00,
2013-03-30 17:34:00,38.0,37.0,-100.00,SW,227,4.0,8.0,95,0.00,,,0.00,72.000000,,2013-03-30 21:34:00,
2013-03-30 17:43:00,38.0,37.0,-100.00,SW,227,4.0,8.0,95,0.00,,,0.00,72.000000,,2013-03-30 21:43:00,
2013-03-30 17:52:00,38.0,37.0,-100.00,SW,227,4.0,8.0,95,0.00,,,0.00,72.000000,,2013-03-30 21:52:00,
2013-03-30 18:23:00,39.0,37.0,-100.00,SW,226,4.0,8.0,93,0.00,,,0.00,86.000000,,2013-03-30 22:23:00,
2013-03-30 18:33:00,39.0,37.0,-100.00,SW,226,4.0,8.0,93,0.00,,,0.00,86.000000,,2013-03-30 22:33:00,
2013-03-30 18:43:00,39.0,37.0,-100.00,SW,226,4.0,8.0,93,0.00,,,0.00,86.000000,,2013-03-30 22:43:00,
2013-03-30 18:53:00,39.0,37.0,-100.00,SW,226,4.0,8.0,93,0.00,,,0.00,86.000000,,2013-03-30 22:53:00,
2013-03-30 19:22:00,39.0,37.0,-100.00,SW,227,3.0,8.0,94,0.00,,,0.00,60.000000,,2013-03-30 23:22:00,
2013-03-30 19:33:00,39.0,37.0,-100.00,SW,227,3.0,8.0,94,0.00,,,0.00,60.000000,,2013-03-30 23:33:00,
2013-03-30 19:42:00,39.0,37.0,-100.00,SW,227,3.0,8.0,94,0.00,,,0.00,60.000000,,2013-03-30 23:42:00,
2013-03-30 19:52:00,39.0,37.0,-100.00,SW,227,3.0,8.0,94,0.00,,,0.00,60.000000,,2013-03-30 23:52:00,
2013-03-30 20:22:00,38.0,36.0,-100.00,SSW,213,3.0,7.0,94,0.00,,,0.00,38.000000,,2013-03-31 00:22:00,
2013-03-30 20:32:00,38.0,36.0,-100.00,SSW,213,3.0,7.0,94,0.00,,,0.00,38.000000,,2013-03-31 00:32:00,
2013-03-30 20:42:00,38.0,36.0,-100.00,SSW,213,3.0,7.0,94,0.00,,,0.00,38.000000,,2013-03-31 00:42:00,
2013-03-30 20:52:00,38.0,36.0,-100.00,SSW,213,3.0,7.0,94,0.00,,,0.00,38.000000,,2013-03-31 00:52:00,
2013-03-30 21:22:00,34.0,33.0,-100.00,SSW,197,1.0,5.0,95,0.00,,,0.00,7.000000,,2013-03-31 01:22:00,
2013-03-30 21:32:00,34.0,33.0,-100.00,SSW,197,1.0,5.0,95,0.00,,,0.00,7.000000,,2013-03-31 01:32:00,
2013-03-30 21:42:00,34.0,33.0,-100.00,SSW,197,1.0,5.0,95,0.00,,,0.00,7.000000,,2013-03-31 01:42:00,
2013-03-30 21:52:00,34.0,33.0,-100.00,SSW,197,1.0,5.0,95,0.00,,,0.00,7.000000,,2013-03-31 01:52:00,
2013-03-30 22:22:00,31.0,30.0,-100.00,South,185,1.0,3.0,96,0.00,,,0.00,1.000000,,2013-03-31 02:22:00,
2013-03-30 22:32:00,31.0,30.0,-100.00,South,185,1.0,3.0,96,0.00,,,0.00,1.000000,,2013-03-31 02:32:00,
2013-03-30 22:43:00,31.0,30.0,-100.00,South,185,1.0,3.0,96,0.00,,,0.00,1.000000,,2013-03-31 02:43:00,
2013-03-30 22:52:00,31.0,30.0,-100.00,South,185,1.0,3.0,96,0.00,,,0.00,1.000000,,2013-03-31 02:52:00,
2013-03-30 23:22:00,31.0,30.0,-100.00,SE,140,1.0,4.0,97,0.00,,,0.00,1.000000,,2013-03-31 03:22:00,
2013-03-30 23:33:00,31.0,30.0,-100.00,SE,140,1.0,4.0,97,0.00,,,0.00,1.000000,,2013-03-31 03:33:00,
2013-03-30 23:43:00,31.0,30.0,-100.00,SE,140,1.0,4.0,97,0.00,,,0.00,1.000000,,2013-03-31 03:43:00,
2013-03-30 23:53:00,31.0,30.0,-100.00,SE,140,1.0,4.0,97,0.00,,,0.00,1.000000,,2013-03-31 03:53:00,